sensor_id;sensor_type;location;lat;lon;timestamp;P1;durP1;ratioP1;P2;durP2;ratioP2
297;SDS011;133;49.626;9.680;2023-04-01T00:01:38;6.73;;;2.27;;
297;SDS011;133;49.626;9.680;2023-04-01T00:04:03;4.90;;;1.93;;
297;SDS011;133;49.626;9.680;2023-04-01T00:06:29;2.80;;;1.90;;
297;SDS011;133;49.626;9.680;2023-04-01T00:08:55;7.00;;;2.00;;
297;SDS011;133;49.626;9.680;2023-04-01T00:11:21;3.00;;;1.90;;
297;SDS011;133;49.626;9.680;2023-04-01T00:13:47;2.23;;;1.60;;
297;SDS011;133;49.626;9.680;2023-04-01T00:16:13;2.20;;;2.00;;
297;SDS011;133;49.626;9.680;2023-04-01T00:18:40;3.53;;;1.83;;
297;SDS011;133;49.626;9.680;2023-04-01T00:21:05;3.33;;;1.63;;
297;SDS011;133;49.626;9.680;2023-04-01T00:23:31;2.63;;;1.87;;
297;SDS011;133;49.626;9.680;2023-04-01T00:25:59;2.40;;;1.87;;
297;SDS011;133;49.626;9.680;2023-04-01T00:28:26;3.00;;;1.90;;
297;SDS011;133;49.626;9.680;2023-04-01T00:30:52;2.40;;;2.00;;
297;SDS011;133;49.626;9.680;2023-04-01T00:33:17;4.53;;;1.93;;
297;SDS011;133;49.626;9.680;2023-04-01T00:35:43;2.60;;;1.60;;
297;SDS011;133;49.626;9.680;2023-04-01T00:38:09;1.97;;;1.70;;
297;SDS011;133;49.626;9.680;2023-04-01T00:40:40;9.10;;;1.97;;
297;SDS011;133;49.626;9.680;2023-04-01T00:43:11;5.57;;;1.60;;
297;SDS011;133;49.626;9.680;2023-04-01T00:45:44;1.83;;;1.80;;
297;SDS011;133;49.626;9.680;2023-04-01T00:50:48;3.83;;;2.00;;
297;SDS011;133;49.626;9.680;2023-04-01T00:53:30;5.03;;;1.97;;
297;SDS011;133;49.626;9.680;2023-04-01T00:56:01;3.80;;;1.90;;
297;SDS011;133;49.626;9.680;2023-04-01T00:58:31;3.70;;;2.20;;
297;SDS011;133;49.626;9.680;2023-04-01T01:01:00;2.33;;;1.73;;
297;SDS011;133;49.626;9.680;2023-04-01T01:03:26;6.53;;;2.07;;
297;SDS011;133;49.626;9.680;2023-04-01T01:06:03;2.30;;;2.00;;
297;SDS011;133;49.626;9.680;2023-04-01T01:11:51;3.63;;;1.83;;
297;SDS011;133;49.626;9.680;2023-04-01T01:14:28;4.93;;;2.00;;
297;SDS011;133;49.626;9.680;2023-04-01T01:17:47;1.87;;;1.70;;
297;SDS011;133;49.626;9.680;2023-04-01T01:25:49;5.40;;;2.10;;
297;SDS011;133;49.626;9.680;2023-04-01T01:31:26;2.80;;;2.20;;
297;SDS011;133;49.626;9.680;2023-04-01T01:36:48;2.80;;;1.90;;
297;SDS011;133;49.626;9.680;2023-04-01T01:39:21;2.70;;;1.80;;
297;SDS011;133;49.626;9.680;2023-04-01T01:41:52;2.33;;;1.90;;
297;SDS011;133;49.626;9.680;2023-04-01T01:44:20;3.73;;;1.83;;
297;SDS011;133;49.626;9.680;2023-04-01T01:46:47;4.53;;;1.90;;
297;SDS011;133;49.626;9.680;2023-04-01T01:49:14;2.00;;;1.60;;
297;SDS011;133;49.626;9.680;2023-04-01T01:51:42;2.40;;;2.13;;
297;SDS011;133;49.626;9.680;2023-04-01T01:54:11;4.40;;;1.80;;
297;SDS011;133;49.626;9.680;2023-04-01T01:56:38;3.47;;;1.90;;
297;SDS011;133;49.626;9.680;2023-04-01T01:59:05;6.80;;;2.37;;
297;SDS011;133;49.626;9.680;2023-04-01T02:01:37;8.90;;;2.50;;
297;SDS011;133;49.626;9.680;2023-04-01T02:04:06;6.90;;;2.13;;
297;SDS011;133;49.626;9.680;2023-04-01T02:06:35;3.40;;;1.90;;
297;SDS011;133;49.626;9.680;2023-04-01T02:09:05;2.33;;;1.97;;
297;SDS011;133;49.626;9.680;2023-04-01T02:11:43;1.93;;;1.77;;
297;SDS011;133;49.626;9.680;2023-04-01T02:14:15;2.40;;;1.83;;
297;SDS011;133;49.626;9.680;2023-04-01T02:19:12;3.60;;;1.97;;
297;SDS011;133;49.626;9.680;2023-04-01T02:21:40;3.80;;;2.20;;
297;SDS011;133;49.626;9.680;2023-04-01T02:24:09;3.73;;;1.90;;
297;SDS011;133;49.626;9.680;2023-04-01T02:26:39;5.30;;;1.93;;
297;SDS011;133;49.626;9.680;2023-04-01T02:29:05;4.80;;;2.10;;
297;SDS011;133;49.626;9.680;2023-04-01T02:31:34;3.67;;;1.80;;
297;SDS011;133;49.626;9.680;2023-04-01T02:34:00;4.07;;;2.23;;
297;SDS011;133;49.626;9.680;2023-04-01T02:36:27;11.00;;;2.33;;
297;SDS011;133;49.626;9.680;2023-04-01T02:38:53;3.23;;;2.17;;
297;SDS011;133;49.626;9.680;2023-04-01T02:41:20;2.80;;;2.00;;
297;SDS011;133;49.626;9.680;2023-04-01T02:43:46;2.33;;;1.80;;
297;SDS011;133;49.626;9.680;2023-04-01T02:46:11;3.30;;;2.00;;
297;SDS011;133;49.626;9.680;2023-04-01T02:48:37;1.77;;;1.70;;
297;SDS011;133;49.626;9.680;2023-04-01T02:51:03;3.93;;;2.10;;
297;SDS011;133;49.626;9.680;2023-04-01T02:53:28;2.90;;;2.03;;
297;SDS011;133;49.626;9.680;2023-04-01T02:55:54;4.93;;;2.30;;
297;SDS011;133;49.626;9.680;2023-04-01T02:58:21;7.57;;;2.30;;
297;SDS011;133;49.626;9.680;2023-04-01T03:00:46;3.90;;;2.17;;
297;SDS011;133;49.626;9.680;2023-04-01T03:03:12;2.83;;;1.87;;
297;SDS011;133;49.626;9.680;2023-04-01T03:05:38;6.53;;;2.10;;
297;SDS011;133;49.626;9.680;2023-04-01T03:08:04;3.77;;;2.10;;
297;SDS011;133;49.626;9.680;2023-04-01T03:10:31;4.20;;;2.20;;
297;SDS011;133;49.626;9.680;2023-04-01T03:12:56;4.83;;;1.93;;
297;SDS011;133;49.626;9.680;2023-04-01T03:15:22;3.77;;;2.30;;
297;SDS011;133;49.626;9.680;2023-04-01T03:17:48;5.27;;;2.10;;
297;SDS011;133;49.626;9.680;2023-04-01T03:20:13;4.60;;;1.77;;
297;SDS011;133;49.626;9.680;2023-04-01T03:22:40;3.10;;;1.80;;
297;SDS011;133;49.626;9.680;2023-04-01T03:25:06;2.47;;;1.80;;
297;SDS011;133;49.626;9.680;2023-04-01T03:27:33;3.00;;;1.80;;
297;SDS011;133;49.626;9.680;2023-04-01T03:30:00;3.00;;;1.80;;
297;SDS011;133;49.626;9.680;2023-04-01T03:32:25;4.67;;;2.17;;
297;SDS011;133;49.626;9.680;2023-04-01T03:34:52;3.30;;;2.00;;
297;SDS011;133;49.626;9.680;2023-04-01T03:37:17;2.83;;;1.80;;
297;SDS011;133;49.626;9.680;2023-04-01T03:39:43;4.27;;;2.53;;
297;SDS011;133;49.626;9.680;2023-04-01T03:42:09;2.10;;;1.67;;
297;SDS011;133;49.626;9.680;2023-04-01T03:44:34;7.27;;;2.00;;
297;SDS011;133;49.626;9.680;2023-04-01T03:47:00;6.33;;;2.00;;
297;SDS011;133;49.626;9.680;2023-04-01T03:49:26;3.67;;;1.90;;
297;SDS011;133;49.626;9.680;2023-04-01T03:51:52;3.57;;;1.90;;
297;SDS011;133;49.626;9.680;2023-04-01T03:54:17;3.80;;;2.40;;
297;SDS011;133;49.626;9.680;2023-04-01T03:56:45;2.40;;;1.87;;
297;SDS011;133;49.626;9.680;2023-04-01T03:59:11;2.67;;;1.77;;
297;SDS011;133;49.626;9.680;2023-04-01T04:01:37;2.50;;;1.73;;
297;SDS011;133;49.626;9.680;2023-04-01T04:04:02;5.50;;;1.70;;
297;SDS011;133;49.626;9.680;2023-04-01T04:06:29;1.87;;;1.60;;
297;SDS011;133;49.626;9.680;2023-04-01T04:08:55;4.60;;;1.57;;
297;SDS011;133;49.626;9.680;2023-04-01T04:11:20;1.93;;;1.60;;
297;SDS011;133;49.626;9.680;2023-04-01T04:13:47;1.60;;;1.50;;
297;SDS011;133;49.626;9.680;2023-04-01T04:16:13;2.03;;;1.73;;
297;SDS011;133;49.626;9.680;2023-04-01T04:18:39;1.87;;;1.80;;
297;SDS011;133;49.626;9.680;2023-04-01T04:21:05;3.63;;;2.07;;
297;SDS011;133;49.626;9.680;2023-04-01T04:23:31;1.67;;;1.60;;
297;SDS011;133;49.626;9.680;2023-04-01T04:26:06;1.70;;;1.63;;
297;SDS011;133;49.626;9.680;2023-04-01T04:28:33;4.13;;;1.73;;
297;SDS011;133;49.626;9.680;2023-04-01T04:30:59;3.40;;;1.70;;
297;SDS011;133;49.626;9.680;2023-04-01T04:33:25;2.03;;;1.70;;
297;SDS011;133;49.626;9.680;2023-04-01T04:35:53;5.10;;;1.90;;
297;SDS011;133;49.626;9.680;2023-04-01T04:38:21;2.53;;;1.70;;
297;SDS011;133;49.626;9.680;2023-04-01T04:40:47;2.90;;;1.60;;
297;SDS011;133;49.626;9.680;2023-04-01T04:43:13;4.47;;;1.73;;
297;SDS011;133;49.626;9.680;2023-04-01T04:45:41;6.17;;;1.90;;
297;SDS011;133;49.626;9.680;2023-04-01T04:48:10;2.10;;;1.47;;
297;SDS011;133;49.626;9.680;2023-04-01T04:50:41;2.90;;;1.60;;
297;SDS011;133;49.626;9.680;2023-04-01T04:53:09;2.50;;;1.50;;
297;SDS011;133;49.626;9.680;2023-04-01T04:55:35;2.30;;;1.93;;
297;SDS011;133;49.626;9.680;2023-04-01T04:58:01;2.17;;;1.60;;
297;SDS011;133;49.626;9.680;2023-04-01T05:00:26;1.70;;;1.43;;
297;SDS011;133;49.626;9.680;2023-04-01T05:02:52;4.07;;;1.50;;
297;SDS011;133;49.626;9.680;2023-04-01T05:05:17;3.00;;;1.50;;
297;SDS011;133;49.626;9.680;2023-04-01T05:07:43;1.83;;;1.63;;
297;SDS011;133;49.626;9.680;2023-04-01T05:10:09;2.70;;;1.80;;
297;SDS011;133;49.626;9.680;2023-04-01T05:12:35;1.60;;;1.53;;
297;SDS011;133;49.626;9.680;2023-04-01T05:15:04;3.67;;;1.60;;
297;SDS011;133;49.626;9.680;2023-04-01T05:17:30;4.43;;;1.80;;
297;SDS011;133;49.626;9.680;2023-04-01T05:19:55;4.40;;;2.90;;
297;SDS011;133;49.626;9.680;2023-04-01T05:22:21;4.17;;;1.73;;
297;SDS011;133;49.626;9.680;2023-04-01T05:24:47;2.70;;;1.60;;
297;SDS011;133;49.626;9.680;2023-04-01T05:27:12;2.70;;;1.80;;
297;SDS011;133;49.626;9.680;2023-04-01T05:29:38;3.00;;;1.70;;
297;SDS011;133;49.626;9.680;2023-04-01T05:32:04;3.30;;;2.03;;
297;SDS011;133;49.626;9.680;2023-04-01T05:34:29;2.43;;;1.80;;
297;SDS011;133;49.626;9.680;2023-04-01T05:36:55;1.47;;;1.40;;
297;SDS011;133;49.626;9.680;2023-04-01T05:39:20;1.67;;;1.60;;
297;SDS011;133;49.626;9.680;2023-04-01T05:41:46;2.13;;;1.60;;
297;SDS011;133;49.626;9.680;2023-04-01T05:44:12;4.77;;;2.00;;
297;SDS011;133;49.626;9.680;2023-04-01T05:46:38;2.47;;;1.50;;
297;SDS011;133;49.626;9.680;2023-04-01T05:49:03;3.40;;;1.70;;
297;SDS011;133;49.626;9.680;2023-04-01T05:51:29;3.97;;;1.80;;
297;SDS011;133;49.626;9.680;2023-04-01T05:53:54;5.17;;;1.80;;
297;SDS011;133;49.626;9.680;2023-04-01T05:56:20;2.33;;;1.70;;
297;SDS011;133;49.626;9.680;2023-04-01T05:58:50;3.50;;;1.60;;
297;SDS011;133;49.626;9.680;2023-04-01T06:01:16;4.13;;;1.60;;
297;SDS011;133;49.626;9.680;2023-04-01T06:03:43;2.40;;;1.50;;
297;SDS011;133;49.626;9.680;2023-04-01T06:06:18;5.53;;;1.90;;
297;SDS011;133;49.626;9.680;2023-04-01T06:08:48;2.07;;;1.80;;
297;SDS011;133;49.626;9.680;2023-04-01T06:14:27;3.47;;;1.97;;
297;SDS011;133;49.626;9.680;2023-04-01T06:19:44;3.30;;;1.90;;
297;SDS011;133;49.626;9.680;2023-04-01T06:22:22;3.80;;;1.80;;
297;SDS011;133;49.626;9.680;2023-04-01T06:36:04;2.73;;;1.70;;
297;SDS011;133;49.626;9.680;2023-04-01T06:47:17;3.43;;;1.70;;
297;SDS011;133;49.626;9.680;2023-04-01T06:52:26;2.00;;;1.63;;
297;SDS011;133;49.626;9.680;2023-04-01T06:57:47;3.50;;;1.80;;
297;SDS011;133;49.626;9.680;2023-04-01T07:00:21;3.53;;;1.70;;
297;SDS011;133;49.626;9.680;2023-04-01T07:03:02;4.20;;;1.67;;
297;SDS011;133;49.626;9.680;2023-04-01T07:05:48;2.73;;;1.90;;
297;SDS011;133;49.626;9.680;2023-04-01T07:08:20;2.07;;;1.57;;
297;SDS011;133;49.626;9.680;2023-04-01T07:13:29;2.83;;;1.97;;
297;SDS011;133;49.626;9.680;2023-04-01T07:18:41;2.13;;;1.70;;
297;SDS011;133;49.626;9.680;2023-04-01T07:21:20;5.57;;;2.07;;
297;SDS011;133;49.626;9.680;2023-04-01T07:24:11;4.50;;;1.70;;
297;SDS011;133;49.626;9.680;2023-04-01T07:26:42;1.63;;;1.53;;
297;SDS011;133;49.626;9.680;2023-04-01T07:29:12;3.33;;;1.97;;
297;SDS011;133;49.626;9.680;2023-04-01T07:34:34;2.20;;;1.70;;
297;SDS011;133;49.626;9.680;2023-04-01T07:37:15;1.90;;;1.60;;
297;SDS011;133;49.626;9.680;2023-04-01T07:42:38;2.33;;;1.50;;
297;SDS011;133;49.626;9.680;2023-04-01T07:48:12;1.70;;;1.60;;
297;SDS011;133;49.626;9.680;2023-04-01T07:53:49;2.93;;;1.87;;
297;SDS011;133;49.626;9.680;2023-04-01T07:56:28;2.93;;;1.60;;
297;SDS011;133;49.626;9.680;2023-04-01T08:01:45;1.87;;;1.80;;
297;SDS011;133;49.626;9.680;2023-04-01T08:04:23;2.30;;;1.40;;
297;SDS011;133;49.626;9.680;2023-04-01T08:07:09;2.80;;;1.50;;
297;SDS011;133;49.626;9.680;2023-04-01T08:15:21;1.57;;;1.40;;
297;SDS011;133;49.626;9.680;2023-04-01T08:21:06;2.60;;;1.60;;
297;SDS011;133;49.626;9.680;2023-04-01T08:23:43;1.40;;;1.30;;
297;SDS011;133;49.626;9.680;2023-04-01T08:26:30;1.47;;;1.37;;
297;SDS011;133;49.626;9.680;2023-04-01T08:29:04;1.47;;;1.40;;
297;SDS011;133;49.626;9.680;2023-04-01T08:34:36;1.47;;;1.43;;
297;SDS011;133;49.626;9.680;2023-04-01T08:37:08;2.57;;;1.30;;
297;SDS011;133;49.626;9.680;2023-04-01T08:39:44;1.57;;;1.30;;
297;SDS011;133;49.626;9.680;2023-04-01T09:09:09;1.60;;;1.50;;
297;SDS011;133;49.626;9.680;2023-04-01T09:11:49;1.57;;;1.47;;
297;SDS011;133;49.626;9.680;2023-04-01T09:14:36;1.70;;;1.60;;
297;SDS011;133;49.626;9.680;2023-04-01T09:20:05;2.07;;;1.50;;
297;SDS011;133;49.626;9.680;2023-04-01T09:28:20;1.20;;;1.10;;
297;SDS011;133;49.626;9.680;2023-04-01T09:31:13;1.80;;;1.40;;
297;SDS011;133;49.626;9.680;2023-04-01T09:53:53;1.50;;;1.40;;
297;SDS011;133;49.626;9.680;2023-04-01T09:56:41;2.80;;;1.80;;
297;SDS011;133;49.626;9.680;2023-04-01T09:59:38;1.77;;;1.70;;
297;SDS011;133;49.626;9.680;2023-04-01T10:08:15;1.27;;;1.20;;
297;SDS011;133;49.626;9.680;2023-04-01T10:10:57;2.00;;;1.30;;
297;SDS011;133;49.626;9.680;2023-04-01T10:13:46;1.30;;;1.20;;
297;SDS011;133;49.626;9.680;2023-04-01T10:19:18;1.37;;;1.27;;
297;SDS011;133;49.626;9.680;2023-04-01T10:22:17;1.37;;;1.37;;
297;SDS011;133;49.626;9.680;2023-04-01T10:28:16;1.33;;;1.23;;
297;SDS011;133;49.626;9.680;2023-04-01T10:54:36;1.73;;;1.63;;
297;SDS011;133;49.626;9.680;2023-04-01T10:57:24;1.60;;;1.50;;
297;SDS011;133;49.626;9.680;2023-04-01T11:17:43;1.40;;;1.30;;
297;SDS011;133;49.626;9.680;2023-04-01T11:32:39;1.47;;;1.40;;
297;SDS011;133;49.626;9.680;2023-04-01T11:44:09;2.17;;;1.40;;
297;SDS011;133;49.626;9.680;2023-04-01T11:47:10;1.40;;;1.30;;
297;SDS011;133;49.626;9.680;2023-04-01T11:56:07;1.77;;;1.40;;
297;SDS011;133;49.626;9.680;2023-04-01T12:07:06;1.20;;;1.10;;
297;SDS011;133;49.626;9.680;2023-04-01T12:12:17;1.97;;;1.40;;
297;SDS011;133;49.626;9.680;2023-04-01T12:26:00;1.50;;;1.40;;
297;SDS011;133;49.626;9.680;2023-04-01T12:31:31;1.30;;;1.20;;
297;SDS011;133;49.626;9.680;2023-04-01T12:40:02;1.70;;;1.60;;
297;SDS011;133;49.626;9.680;2023-04-01T12:42:55;1.60;;;1.50;;
297;SDS011;133;49.626;9.680;2023-04-01T12:51:36;1.50;;;1.40;;
297;SDS011;133;49.626;9.680;2023-04-01T13:00:02;1.70;;;1.60;;
297;SDS011;133;49.626;9.680;2023-04-01T13:02:54;1.50;;;1.40;;
297;SDS011;133;49.626;9.680;2023-04-01T13:25:44;3.10;;;2.50;;
297;SDS011;133;49.626;9.680;2023-04-01T13:28:37;2.53;;;2.33;;
297;SDS011;133;49.626;9.680;2023-04-01T13:31:25;1.50;;;1.40;;
297;SDS011;133;49.626;9.680;2023-04-01T13:42:20;2.40;;;1.57;;
297;SDS011;133;49.626;9.680;2023-04-01T13:44:55;1.80;;;1.70;;
297;SDS011;133;49.626;9.680;2023-04-01T13:55:46;1.50;;;1.40;;
297;SDS011;133;49.626;9.680;2023-04-01T14:01:41;1.70;;;1.60;;
297;SDS011;133;49.626;9.680;2023-04-01T14:20:36;2.13;;;1.70;;
297;SDS011;133;49.626;9.680;2023-04-01T14:23:18;1.50;;;1.40;;
297;SDS011;133;49.626;9.680;2023-04-01T14:28:49;1.70;;;1.60;;
297;SDS011;133;49.626;9.680;2023-04-01T14:37:34;1.60;;;1.50;;
297;SDS011;133;49.626;9.680;2023-04-01T14:40:26;1.80;;;1.70;;
297;SDS011;133;49.626;9.680;2023-04-01T14:53:51;3.87;;;3.00;;
297;SDS011;133;49.626;9.680;2023-04-01T14:59:04;3.97;;;3.23;;
297;SDS011;133;49.626;9.680;2023-04-01T15:01:59;4.10;;;3.40;;
297;SDS011;133;49.626;9.680;2023-04-01T15:04:49;2.87;;;2.30;;
297;SDS011;133;49.626;9.680;2023-04-01T15:08:18;1.90;;;1.80;;
297;SDS011;133;49.626;9.680;2023-04-01T15:10:47;2.47;;;2.00;;
297;SDS011;133;49.626;9.680;2023-04-01T15:30:40;1.90;;;1.80;;
297;SDS011;133;49.626;9.680;2023-04-01T15:38:36;2.60;;;1.80;;
297;SDS011;133;49.626;9.680;2023-04-01T15:44:02;1.90;;;1.80;;
297;SDS011;133;49.626;9.680;2023-04-01T15:52:15;6.57;;;3.60;;
297;SDS011;133;49.626;9.680;2023-04-01T15:54:52;2.40;;;2.20;;
297;SDS011;133;49.626;9.680;2023-04-01T16:06:11;1.83;;;1.73;;
297;SDS011;133;49.626;9.680;2023-04-01T16:22:11;2.07;;;1.93;;
297;SDS011;133;49.626;9.680;2023-04-01T16:24:46;1.77;;;1.67;;
297;SDS011;133;49.626;9.680;2023-04-01T16:27:18;1.70;;;1.60;;
297;SDS011;133;49.626;9.680;2023-04-01T16:33:02;1.77;;;1.67;;
297;SDS011;133;49.626;9.680;2023-04-01T16:35:42;1.73;;;1.63;;
297;SDS011;133;49.626;9.680;2023-04-01T16:43:43;2.00;;;1.90;;
297;SDS011;133;49.626;9.680;2023-04-01T16:51:48;1.63;;;1.53;;
297;SDS011;133;49.626;9.680;2023-04-01T16:57:17;1.80;;;1.70;;
297;SDS011;133;49.626;9.680;2023-04-01T17:05:39;1.83;;;1.73;;
297;SDS011;133;49.626;9.680;2023-04-01T17:08:36;1.70;;;1.60;;
297;SDS011;133;49.626;9.680;2023-04-01T17:11:35;2.20;;;2.00;;
297;SDS011;133;49.626;9.680;2023-04-01T17:14:28;1.90;;;1.80;;
297;SDS011;133;49.626;9.680;2023-04-01T17:20:09;2.20;;;2.00;;
297;SDS011;133;49.626;9.680;2023-04-01T17:31:07;2.00;;;1.90;;
297;SDS011;133;49.626;9.680;2023-04-01T17:33:47;2.00;;;1.90;;
297;SDS011;133;49.626;9.680;2023-04-01T17:36:33;1.80;;;1.70;;
297;SDS011;133;49.626;9.680;2023-04-01T17:41:52;2.00;;;1.90;;
297;SDS011;133;49.626;9.680;2023-04-01T17:44:38;2.20;;;2.00;;
297;SDS011;133;49.626;9.680;2023-04-01T17:52:26;2.33;;;2.13;;
297;SDS011;133;49.626;9.680;2023-04-01T17:55:20;1.90;;;1.80;;
297;SDS011;133;49.626;9.680;2023-04-01T18:03:21;3.27;;;2.10;;
297;SDS011;133;49.626;9.680;2023-04-01T18:06:06;2.10;;;1.90;;
297;SDS011;133;49.626;9.680;2023-04-01T18:19:09;2.20;;;2.00;;
297;SDS011;133;49.626;9.680;2023-04-01T18:22:04;2.53;;;2.33;;
297;SDS011;133;49.626;9.680;2023-04-01T18:24:44;2.67;;;2.20;;
297;SDS011;133;49.626;9.680;2023-04-01T18:29:54;2.07;;;1.93;;
297;SDS011;133;49.626;9.680;2023-04-01T18:32:47;2.37;;;2.17;;
297;SDS011;133;49.626;9.680;2023-04-01T18:38:00;2.20;;;2.00;;
297;SDS011;133;49.626;9.680;2023-04-01T18:40:37;3.57;;;2.00;;
297;SDS011;133;49.626;9.680;2023-04-01T18:43:21;2.30;;;2.10;;
297;SDS011;133;49.626;9.680;2023-04-01T18:45:54;2.30;;;2.10;;
297;SDS011;133;49.626;9.680;2023-04-01T18:48:46;3.33;;;2.23;;
297;SDS011;133;49.626;9.680;2023-04-01T18:51:37;2.47;;;2.33;;
297;SDS011;133;49.626;9.680;2023-04-01T18:54:40;2.37;;;2.17;;
297;SDS011;133;49.626;9.680;2023-04-01T19:05:35;3.03;;;2.20;;
297;SDS011;133;49.626;9.680;2023-04-01T19:16:10;2.07;;;1.93;;
297;SDS011;133;49.626;9.680;2023-04-01T19:21:26;2.13;;;1.83;;
297;SDS011;133;49.626;9.680;2023-04-01T19:26:58;2.40;;;2.20;;
297;SDS011;133;49.626;9.680;2023-04-01T19:30:10;1.90;;;1.80;;
297;SDS011;133;49.626;9.680;2023-04-01T19:32:41;2.17;;;2.00;;
297;SDS011;133;49.626;9.680;2023-04-01T19:35:26;2.13;;;2.00;;
297;SDS011;133;49.626;9.680;2023-04-01T19:37:57;2.20;;;2.00;;
297;SDS011;133;49.626;9.680;2023-04-01T19:45:50;2.40;;;2.20;;
297;SDS011;133;49.626;9.680;2023-04-01T19:51:06;2.63;;;2.23;;
297;SDS011;133;49.626;9.680;2023-04-01T19:56:23;2.30;;;2.10;;
297;SDS011;133;49.626;9.680;2023-04-01T19:58:58;2.53;;;2.10;;
297;SDS011;133;49.626;9.680;2023-04-01T20:01:58;4.90;;;2.30;;
297;SDS011;133;49.626;9.680;2023-04-01T20:05:41;2.30;;;2.10;;
297;SDS011;133;49.626;9.680;2023-04-01T20:07:56;2.70;;;2.50;;
297;SDS011;133;49.626;9.680;2023-04-01T20:19:45;4.33;;;2.53;;
297;SDS011;133;49.626;9.680;2023-04-01T20:25:26;2.30;;;2.10;;
297;SDS011;133;49.626;9.680;2023-04-01T20:28:05;5.83;;;2.40;;
297;SDS011;133;49.626;9.680;2023-04-01T20:33:45;2.30;;;2.10;;
297;SDS011;133;49.626;9.680;2023-04-01T20:53:36;1.93;;;1.83;;
297;SDS011;133;49.626;9.680;2023-04-01T20:59:27;2.40;;;2.20;;
297;SDS011;133;49.626;9.680;2023-04-01T21:10:46;4.30;;;2.20;;
297;SDS011;133;49.626;9.680;2023-04-01T21:19:16;3.73;;;2.00;;
297;SDS011;133;49.626;9.680;2023-04-01T21:22:00;2.20;;;2.00;;
297;SDS011;133;49.626;9.680;2023-04-01T21:24:39;2.47;;;2.00;;
297;SDS011;133;49.626;9.680;2023-04-01T21:27:31;2.23;;;2.07;;
297;SDS011;133;49.626;9.680;2023-04-01T21:31:22;2.40;;;1.97;;
297;SDS011;133;49.626;9.680;2023-04-01T21:33:16;2.20;;;2.00;;
297;SDS011;133;49.626;9.680;2023-04-01T21:39:26;2.07;;;1.93;;
297;SDS011;133;49.626;9.680;2023-04-01T21:42:02;2.97;;;2.30;;
297;SDS011;133;49.626;9.680;2023-04-01T21:44:39;2.30;;;2.10;;
297;SDS011;133;49.626;9.680;2023-04-01T22:03:58;3.13;;;2.60;;
297;SDS011;133;49.626;9.680;2023-04-01T22:06:51;3.63;;;2.30;;
297;SDS011;133;49.626;9.680;2023-04-01T22:09:41;3.70;;;2.30;;
297;SDS011;133;49.626;9.680;2023-04-01T22:15:06;2.20;;;2.00;;
297;SDS011;133;49.626;9.680;2023-04-01T22:18:11;2.07;;;1.93;;
297;SDS011;133;49.626;9.680;2023-04-01T22:20:53;2.30;;;2.10;;
297;SDS011;133;49.626;9.680;2023-04-01T22:23:45;2.60;;;2.40;;
297;SDS011;133;49.626;9.680;2023-04-01T22:29:09;2.40;;;2.20;;
297;SDS011;133;49.626;9.680;2023-04-01T22:31:39;2.70;;;2.50;;
297;SDS011;133;49.626;9.680;2023-04-01T22:40:21;2.73;;;2.53;;
297;SDS011;133;49.626;9.680;2023-04-01T22:43:07;2.70;;;2.50;;
297;SDS011;133;49.626;9.680;2023-04-01T22:48:23;2.73;;;2.53;;
297;SDS011;133;49.626;9.680;2023-04-01T22:51:06;2.80;;;2.60;;
297;SDS011;133;49.626;9.680;2023-04-01T22:56:36;3.40;;;3.17;;
297;SDS011;133;49.626;9.680;2023-04-01T22:59:19;4.47;;;3.10;;
297;SDS011;133;49.626;9.680;2023-04-01T23:01:59;3.70;;;3.47;;
297;SDS011;133;49.626;9.680;2023-04-01T23:04:37;6.53;;;3.23;;
297;SDS011;133;49.626;9.680;2023-04-01T23:10:27;2.97;;;2.77;;
297;SDS011;133;49.626;9.680;2023-04-01T23:13:06;4.67;;;3.30;;
297;SDS011;133;49.626;9.680;2023-04-01T23:15:43;3.17;;;2.90;;
297;SDS011;133;49.626;9.680;2023-04-01T23:18:14;3.47;;;3.27;;
297;SDS011;133;49.626;9.680;2023-04-01T23:26:05;2.90;;;2.70;;
297;SDS011;133;49.626;9.680;2023-04-01T23:31:27;12.93;;;3.83;;
297;SDS011;133;49.626;9.680;2023-04-01T23:34:02;3.33;;;3.10;;
297;SDS011;133;49.626;9.680;2023-04-01T23:36:49;3.80;;;3.40;;
297;SDS011;133;49.626;9.680;2023-04-01T23:42:04;3.97;;;3.77;;
297;SDS011;133;49.626;9.680;2023-04-01T23:44:33;3.97;;;3.87;;
297;SDS011;133;49.626;9.680;2023-04-01T23:47:00;3.80;;;3.60;;
297;SDS011;133;49.626;9.680;2023-04-01T23:49:30;4.40;;;4.10;;
297;SDS011;133;49.626;9.680;2023-04-01T23:52:14;4.40;;;4.13;;
297;SDS011;133;49.626;9.680;2023-04-01T23:54:59;5.43;;;3.87;;
297;SDS011;133;49.626;9.680;2023-04-01T23:57:30;4.03;;;3.87;;
